Time;durP1;ratioP1;P1;durP2;ratioP2;P2;SDS_P1;SDS_P2;PMS_P1;PMS_P2;Temp;Humidity;BMP_temperature;BMP_pressure;BME280_temperature;BME280_humidity;BME280_pressure;Samples;Min_cycle;Max_cycle;Signal;HPM_P1;HPM_P2
2021/12/27 00:01:41;;;;;;;21.73;9.20;;;12.20;99.90;;;;;;5229502;28;20017;-76
2021/12/27 00:04:12;;;;;;;16.23;8.25;;;12.30;99.90;;;;;;5229534;28;20029;-76
2021/12/27 00:06:43;;;;;;;20.65;8.65;;;12.30;99.90;;;;;;5228128;28;20031;-76
2021/12/27 00:09:14;;;;;;;19.73;9.23;;;12.30;99.90;;;;;;5229522;28;20021;-76
2021/12/27 00:11:45;;;;;;;18.77;8.73;;;12.00;99.90;;;;;;5229166;28;20170;-75
2021/12/27 00:14:16;;;;;;;21.73;9.05;;;12.10;99.90;;;;;;5229324;28;20033;-77
2021/12/27 00:16:46;;;;;;;17.80;8.82;;;12.10;99.90;;;;;;5228891;28;20049;-77
2021/12/27 00:19:17;;;;;;;28.10;8.55;;;12.10;99.90;;;;;;5229382;28;20025;-76
2021/12/27 00:21:48;;;;;;;19.33;9.00;;;12.10;99.90;;;;;;5229246;28;20029;-78
2021/12/27 00:24:19;;;;;;;15.65;9.05;;;12.20;99.90;;;;;;5228019;28;20112;-77
2021/12/27 00:26:52;;;;;;;23.88;8.48;;;12.10;99.90;;;;;;5228970;28;20051;-77
2021/12/27 00:29:22;;;;;;;24.30;9.10;;;12.10;99.90;;;;;;5229122;28;20025;-77
2021/12/27 00:31:53;;;;;;;20.42;9.55;;;12.10;99.90;;;;;;5228951;28;20109;-76
2021/12/27 00:34:24;;;;;;;17.05;8.43;;;12.10;99.90;;;;;;5228972;28;20499;-76
2021/12/27 00:36:55;;;;;;;20.70;8.82;;;12.10;99.90;;;;;;5228854;28;20021;-77
2021/12/27 00:39:26;;;;;;;20.40;9.52;;;12.10;99.90;;;;;;5228853;28;20082;-77
2021/12/27 00:41:57;;;;;;;16.77;9.15;;;12.10;99.90;;;;;;5228713;28;20096;-77
2021/12/27 00:44:28;;;;;;;23.33;10.00;;;12.00;99.90;;;;;;5228829;28;20041;-77
2021/12/27 00:46:59;;;;;;;19.42;9.20;;;12.10;99.90;;;;;;5228645;28;20051;-77
2021/12/27 00:49:30;;;;;;;17.75;8.60;;;11.80;99.90;;;;;;5228525;28;20025;-76
2021/12/27 00:52:01;;;;;;;21.42;9.23;;;12.00;99.90;;;;;;5228384;28;20360;-77
2021/12/27 00:54:32;;;;;;;22.13;9.02;;;12.00;99.90;;;;;;5227265;28;20078;-78
2021/12/27 00:57:03;;;;;;;21.38;9.30;;;12.00;99.90;;;;;;5228257;28;20376;-76
2021/12/27 00:59:34;;;;;;;19.60;8.15;;;12.10;99.90;;;;;;5228471;28;20100;-77
2021/12/27 01:02:04;;;;;;;18.58;8.15;;;12.10;99.90;;;;;;5228276;28;20025;-76
2021/12/27 01:04:35;;;;;;;17.90;8.35;;;12.30;99.90;;;;;;5228310;28;20418;-77
2021/12/27 01:07:06;;;;;;;13.43;7.05;;;12.20;99.90;;;;;;5228261;28;20025;-77
2021/12/27 01:17:48;;;;;;;18.25;6.68;;;12.30;99.90;;;;;;5227902;28;20049;-76
2021/12/27 01:20:22;;;;;;;16.65;6.78;;;12.10;99.90;;;;;;5228011;28;20032;-77
2021/12/27 01:22:54;;;;;;;17.35;7.75;;;12.30;99.90;;;;;;5228037;28;20025;-75
2021/12/27 01:25:25;;;;;;;14.98;6.97;;;12.30;99.90;;;;;;5227912;28;20091;-75
2021/12/27 01:27:56;;;;;;;19.95;7.53;;;12.30;99.90;;;;;;5227920;28;20024;-76
2021/12/27 01:30:28;;;;;;;20.70;7.18;;;12.30;99.90;;;;;;5227702;28;20024;-76
2021/12/27 01:33:01;;;;;;;15.07;6.97;;;12.30;99.90;;;;;;5227798;28;20025;-77
2021/12/27 01:35:34;;;;;;;14.05;7.13;;;12.30;99.90;;;;;;5227789;28;20055;-77
2021/12/27 01:38:05;;;;;;;16.85;7.25;;;12.20;99.90;;;;;;5227610;28;20100;-77
2021/12/27 01:40:35;;;;;;;16.23;7.53;;;12.30;99.90;;;;;;5226363;28;20381;-76
2021/12/27 01:43:12;;;;;;;20.67;7.95;;;12.30;99.90;;;;;;5227642;28;20060;-77
2021/12/27 01:46:06;;;;;;;15.52;6.55;;;12.40;99.90;;;;;;5226282;28;20025;-77
2021/12/27 01:48:40;;;;;;;13.80;6.80;;;12.30;99.90;;;;;;5230481;28;20032;-77
2021/12/27 01:51:14;;;;;;;18.13;6.78;;;12.30;99.90;;;;;;5226184;28;20036;-76
2021/12/27 01:53:46;;;;;;;13.98;6.60;;;12.30;99.90;;;;;;5227546;28;20368;-76
2021/12/27 01:56:20;;;;;;;14.50;7.28;;;12.30;99.90;;;;;;5227349;28;20102;-77
2021/12/27 01:58:54;;;;;;;17.25;6.45;;;12.30;99.90;;;;;;5227411;28;20112;-77
2021/12/27 02:01:25;;;;;;;16.13;6.97;;;12.30;99.90;;;;;;5226932;28;20021;-77
2021/12/27 02:03:57;;;;;;;13.32;6.47;;;12.30;99.90;;;;;;5227318;28;20027;-77
2021/12/27 02:06:27;;;;;;;20.23;8.20;;;12.20;99.90;;;;;;5227208;28;20032;-76
2021/12/27 02:08:58;;;;;;;19.00;7.32;;;12.30;99.90;;;;;;5227252;28;20465;-76
2021/12/27 02:11:34;;;;;;;15.43;7.15;;;12.20;99.90;;;;;;5225904;28;20025;-77
2021/12/27 02:14:06;;;;;;;14.77;6.97;;;12.10;99.90;;;;;;5227279;28;20029;-76
2021/12/27 02:16:37;;;;;;;14.35;7.20;;;12.20;99.90;;;;;;5226901;28;20547;-77
2021/12/27 02:19:08;;;;;;;14.93;6.90;;;12.20;99.90;;;;;;5227208;28;20037;-77
2021/12/27 02:21:38;;;;;;;15.35;6.95;;;12.20;99.90;;;;;;5227196;28;20025;-76
2021/12/27 02:24:10;;;;;;;14.10;6.20;;;12.20;99.90;;;;;;5227133;28;20056;-76
2021/12/27 02:26:41;;;;;;;20.38;7.10;;;12.20;99.90;;;;;;5227115;28;20028;-77
2021/12/27 02:29:12;;;;;;;21.63;7.68;;;12.10;99.90;;;;;;5227074;28;20033;-76
2021/12/27 02:31:44;;;;;;;17.38;6.32;;;12.20;99.90;;;;;;5227051;28;20025;-76
2021/12/27 02:34:15;;;;;;;19.15;6.93;;;12.20;99.90;;;;;;5226959;28;20040;-76
2021/12/27 02:36:48;;;;;;;14.57;6.95;;;12.20;99.90;;;;;;5226918;28;20025;-76
2021/12/27 02:39:19;;;;;;;22.20;7.40;;;12.20;99.90;;;;;;5226847;28;20029;-76
2021/12/27 02:41:50;;;;;;;15.20;7.25;;;12.10;99.90;;;;;;5226817;28;20020;-77
2021/12/27 02:44:21;;;;;;;19.15;6.57;;;12.20;99.90;;;;;;5226998;28;20037;-77
2021/12/27 02:46:52;;;;;;;15.25;6.57;;;12.20;99.90;;;;;;5226898;28;20095;-77
2021/12/27 02:49:22;;;;;;;16.38;6.82;;;12.10;99.90;;;;;;5226926;28;20468;-77
2021/12/27 02:51:53;;;;;;;17.00;7.20;;;12.10;99.90;;;;;;5226786;28;20018;-77
2021/12/27 02:54:24;;;;;;;11.45;6.30;;;12.20;99.90;;;;;;5226858;28;20025;-76
2021/12/27 02:56:55;;;;;;;13.63;7.00;;;12.00;99.90;;;;;;5226703;28;20476;-76
2021/12/27 02:59:26;;;;;;;16.40;6.40;;;12.20;99.90;;;;;;5226878;28;20033;-77
2021/12/27 03:01:56;;;;;;;15.93;6.90;;;12.20;99.90;;;;;;5226836;28;20024;-76
2021/12/27 03:04:33;;;;;;;15.80;6.47;;;12.20;99.90;;;;;;5226697;28;20033;-77
2021/12/27 03:07:03;;;;;;;16.42;7.20;;;12.20;99.90;;;;;;5226866;28;20020;-77
2021/12/27 03:09:37;;;;;;;15.75;6.85;;;12.10;99.90;;;;;;5226566;28;20025;-77
2021/12/27 03:12:12;;;;;;;13.45;6.72;;;12.20;99.90;;;;;;5227695;28;20100;-77
2021/12/27 03:14:42;;;;;;;12.73;6.90;;;12.10;99.90;;;;;;5230502;28;20029;-76
2021/12/27 03:17:13;;;;;;;14.30;6.45;;;12.20;99.90;;;;;;5230173;28;20075;-77
2021/12/27 03:19:44;;;;;;;14.80;6.30;;;12.30;99.90;;;;;;5229366;28;20025;-77
2021/12/27 03:22:15;;;;;;;12.40;6.60;;;12.30;99.90;;;;;;5230454;28;20013;-77
2021/12/27 03:24:46;;;;;;;15.68;7.40;;;12.20;99.90;;;;;;5230245;28;20029;-77
2021/12/27 03:27:16;;;;;;;20.10;7.07;;;12.10;99.90;;;;;;5230372;28;20024;-77
2021/12/27 03:29:47;;;;;;;11.32;6.03;;;12.20;99.90;;;;;;5230100;28;20025;-77
2021/12/27 03:32:21;;;;;;;17.30;7.35;;;12.20;99.90;;;;;;5230200;28;20433;-77
2021/12/27 03:35:03;;;;;;;12.40;6.55;;;12.20;99.90;;;;;;5230124;28;20029;-77
2021/12/27 03:37:35;;;;;;;16.85;6.10;;;12.20;99.90;;;;;;5230097;28;20069;-77
2021/12/27 03:40:08;;;;;;;15.13;6.47;;;12.20;99.90;;;;;;5229857;28;20051;-77
2021/12/27 03:42:39;;;;;;;15.27;6.93;;;12.20;99.90;;;;;;5230053;28;20029;-78
2021/12/27 03:45:10;;;;;;;16.15;6.95;;;12.20;99.90;;;;;;5229976;28;20028;-77
2021/12/27 03:47:41;;;;;;;11.88;6.90;;;12.20;99.90;;;;;;5229799;28;20029;-77
2021/12/27 03:50:12;;;;;;;14.90;6.10;;;12.30;99.90;;;;;;5229712;28;20029;-78
2021/12/27 03:52:43;;;;;;;11.65;5.53;;;12.30;99.90;;;;;;5229809;28;20018;-77
2021/12/27 03:55:14;;;;;;;10.15;6.32;;;12.10;99.90;;;;;;5229757;28;20024;-78
2021/12/27 03:57:52;;;;;;;12.68;6.60;;;12.30;99.90;;;;;;5229612;28;20033;-77
2021/12/27 04:00:33;;;;;;;15.90;5.97;;;12.20;99.90;;;;;;5229701;28;20397;-78
2021/12/27 04:03:03;;;;;;;17.00;6.60;;;12.20;99.90;;;;;;5229591;28;20060;-77
2021/12/27 04:05:34;;;;;;;12.75;6.18;;;12.20;99.90;;;;;;5229540;28;20430;-78
2021/12/27 04:08:09;;;;;;;10.32;6.63;;;12.20;99.90;;;;;;5229451;28;20027;-77
2021/12/27 04:10:41;;;;;;;12.40;6.45;;;12.30;99.90;;;;;;5227995;28;20557;-77
2021/12/27 04:13:13;;;;;;;10.00;6.30;;;12.30;99.90;;;;;;5229432;28;20146;-77
2021/12/27 04:15:44;;;;;;;11.60;6.32;;;12.20;99.90;;;;;;5229146;28;20025;-77
2021/12/27 04:18:16;;;;;;;12.13;6.20;;;12.20;99.90;;;;;;5229341;28;20357;-78
2021/12/27 04:20:47;;;;;;;13.63;5.88;;;12.30;99.90;;;;;;5228149;28;20021;-77
2021/12/27 04:23:18;;;;;;;12.75;6.57;;;12.20;99.90;;;;;;5227575;28;20354;-77
2021/12/27 04:25:49;;;;;;;15.75;7.00;;;12.20;99.90;;;;;;5229266;28;20017;-77
2021/12/27 04:28:20;;;;;;;14.73;6.68;;;12.20;99.90;;;;;;5229143;28;20480;-77
2021/12/27 04:30:52;;;;;;;15.98;6.68;;;12.10;99.90;;;;;;5228898;28;20064;-77
2021/12/27 04:33:23;;;;;;;12.63;6.45;;;12.20;99.90;;;;;;5229059;28;20021;-77
2021/12/27 04:35:53;;;;;;;16.60;6.93;;;12.10;99.90;;;;;;5228924;28;20079;-77
2021/12/27 04:38:24;;;;;;;19.42;7.75;;;12.20;99.90;;;;;;5228769;28;20484;-77
2021/12/27 04:40:56;;;;;;;15.75;7.40;;;12.10;99.90;;;;;;5228798;28;20532;-77
2021/12/27 04:43:26;;;;;;;12.73;7.15;;;12.10;99.90;;;;;;5228836;28;20036;-76
2021/12/27 04:45:57;;;;;;;13.00;6.85;;;12.10;99.90;;;;;;5228735;28;20535;-77
2021/12/27 04:48:28;;;;;;;14.63;6.95;;;12.10;99.90;;;;;;5228824;28;20049;-77
2021/12/27 04:50:59;;;;;;;13.32;6.70;;;12.10;99.90;;;;;;5228543;28;20032;-77
2021/12/27 04:53:30;;;;;;;13.70;6.50;;;12.10;99.90;;;;;;5228636;28;20025;-78
2021/12/27 04:56:01;;;;;;;15.73;7.18;;;12.20;99.90;;;;;;5228471;28;20057;-77
2021/12/27 04:58:32;;;;;;;13.88;6.80;;;12.00;99.90;;;;;;5228305;28;20041;-77
2021/12/27 05:01:03;;;;;;;12.98;6.75;;;12.00;99.90;;;;;;5227181;28;20461;-77
2021/12/27 05:03:33;;;;;;;15.75;6.88;;;12.00;99.90;;;;;;5228338;28;20021;-78
2021/12/27 05:06:06;;;;;;;14.52;6.47;;;12.10;99.90;;;;;;5228361;28;20021;-77
2021/12/27 05:08:37;;;;;;;13.52;6.80;;;12.00;99.90;;;;;;5228223;28;20021;-77
2021/12/27 05:11:08;;;;;;;13.80;6.75;;;11.90;99.90;;;;;;5228082;28;20033;-77
2021/12/27 05:13:39;;;;;;;16.45;6.82;;;11.90;99.90;;;;;;5228136;28;20112;-77
2021/12/27 05:16:10;;;;;;;17.85;6.70;;;12.10;99.90;;;;;;5226587;28;20499;-77
2021/12/27 05:18:41;;;;;;;11.93;7.00;;;11.90;99.90;;;;;;5228095;28;20033;-77
2021/12/27 05:21:12;;;;;;;12.15;6.05;;;11.90;99.90;;;;;;5228075;28;20043;-77
2021/12/27 05:23:42;;;;;;;17.90;6.32;;;12.00;99.90;;;;;;5228070;28;20031;-78
2021/12/27 05:26:13;;;;;;;12.23;6.80;;;12.00;99.90;;;;;;5227850;28;20384;-78
2021/12/27 05:28:44;;;;;;;14.10;6.95;;;11.90;99.90;;;;;;5227939;28;20040;-77
2021/12/27 05:31:16;;;;;;;10.52;6.32;;;12.00;99.90;;;;;;5227777;28;20425;-77
2021/12/27 05:33:46;;;;;;;11.18;6.30;;;12.00;99.90;;;;;;5227896;28;20039;-77
2021/12/27 05:36:17;;;;;;;14.60;6.93;;;12.00;99.90;;;;;;5227017;28;20536;-77
2021/12/27 05:38:48;;;;;;;12.23;6.18;;;11.90;99.90;;;;;;5227584;28;20072;-77
2021/12/27 05:41:19;;;;;;;13.05;6.90;;;12.10;99.90;;;;;;5227575;28;20106;-77
2021/12/27 05:43:50;;;;;;;9.10;5.95;;;12.10;99.90;;;;;;5227607;28;20025;-78
2021/12/27 05:46:21;;;;;;;13.00;5.95;;;12.10;99.90;;;;;;5227595;28;20021;-78
2021/12/27 05:48:52;;;;;;;11.25;5.75;;;12.00;99.90;;;;;;5226334;28;20032;-77
2021/12/27 05:51:23;;;;;;;12.02;5.72;;;12.00;99.90;;;;;;5227420;28;20033;-77
2021/12/27 05:53:53;;;;;;;11.75;5.50;;;12.00;99.90;;;;;;5227334;28;20079;-77
2021/12/27 05:56:25;;;;;;;9.73;5.22;;;11.90;99.90;;;;;;5227545;28;20049;-77
2021/12/27 05:58:56;;;;;;;13.02;5.28;;;11.90;99.90;;;;;;5227367;28;20112;-77
2021/12/27 06:01:27;;;;;;;9.50;5.38;;;12.00;99.90;;;;;;5227394;28;20158;-77
2021/12/27 06:03:59;;;;;;;11.05;5.65;;;12.00;99.90;;;;;;5227410;28;20522;-77
2021/12/27 06:06:30;;;;;;;9.13;5.00;;;12.00;99.90;;;;;;5227276;28;20021;-77
2021/12/27 06:09:01;;;;;;;8.88;5.32;;;12.00;99.90;;;;;;5227232;28;20126;-77
2021/12/27 06:11:32;;;;;;;10.07;5.40;;;12.10;99.90;;;;;;5227085;28;20052;-77
2021/12/27 06:14:03;;;;;;;13.13;5.43;;;12.10;99.90;;;;;;5227254;28;20033;-77
2021/12/27 06:16:34;;;;;;;8.23;5.50;;;12.20;99.90;;;;;;5226918;28;20044;-77
2021/12/27 06:19:05;;;;;;;14.70;5.93;;;12.20;99.90;;;;;;5227186;28;20472;-77
2021/12/27 06:21:37;;;;;;;12.70;5.45;;;12.30;99.90;;;;;;5227243;28;20095;-77
2021/12/27 06:24:08;;;;;;;9.40;5.32;;;12.40;99.90;;;;;;5227170;28;20021;-78
2021/12/27 06:26:38;;;;;;;9.48;5.07;;;12.40;99.90;;;;;;5227022;28;20055;-78
2021/12/27 06:29:09;;;;;;;10.35;5.55;;;12.40;99.90;;;;;;5227081;28;20472;-77
2021/12/27 06:31:40;;;;;;;9.70;5.15;;;12.50;99.90;;;;;;5227017;28;20399;-77
2021/12/27 06:34:11;;;;;;;12.68;5.20;;;12.50;99.90;;;;;;5227126;28;20105;-77
2021/12/27 06:36:42;;;;;;;11.75;5.45;;;12.60;99.90;;;;;;5226982;28;20027;-78
2021/12/27 06:39:13;;;;;;;10.70;5.38;;;12.60;99.90;;;;;;5226964;28;20060;-77
2021/12/27 06:41:44;;;;;;;9.05;4.90;;;12.70;99.90;;;;;;5226867;28;20028;-77
2021/12/27 06:44:14;;;;;;;10.40;4.97;;;12.80;99.90;;;;;;5227001;28;20080;-77
2021/12/27 06:46:45;;;;;;;15.55;5.13;;;12.80;99.90;;;;;;5229030;28;20033;-77
2021/12/27 06:49:16;;;;;;;10.82;5.50;;;12.90;99.90;;;;;;5231178;28;20028;-77
2021/12/27 06:51:47;;;;;;;8.45;4.65;;;13.00;99.90;;;;;;5230813;28;20025;-77
2021/12/27 06:54:18;;;;;;;10.98;5.13;;;13.10;99.90;;;;;;5230875;28;20445;-76
2021/12/27 06:56:49;;;;;;;10.05;5.28;;;13.10;99.90;;;;;;5230799;28;20031;-78
2021/12/27 06:59:20;;;;;;;10.45;5.28;;;13.20;99.90;;;;;;5230836;28;20032;-77
2021/12/27 07:01:50;;;;;;;12.98;5.35;;;13.20;99.90;;;;;;5230769;28;20025;-77
2021/12/27 07:04:21;;;;;;;10.43;5.70;;;13.30;99.90;;;;;;5229456;28;20087;-77
2021/12/27 07:06:53;;;;;;;9.60;4.97;;;13.40;99.90;;;;;;5230622;28;20495;-77
2021/12/27 07:09:24;;;;;;;11.88;4.93;;;13.60;99.90;;;;;;5230574;28;20029;-77
2021/12/27 07:11:55;;;;;;;14.02;5.55;;;13.70;99.90;;;;;;5230253;28;20021;-77
2021/12/27 07:14:26;;;;;;;8.73;5.05;;;13.50;99.90;;;;;;5230463;28;20052;-77
2021/12/27 07:16:57;;;;;;;12.65;5.25;;;13.50;99.90;;;;;;5230196;28;20052;-77
2021/12/27 07:19:28;;;;;;;11.45;5.55;;;13.40;99.90;;;;;;5230422;28;20445;-78
2021/12/27 07:21:58;;;;;;;20.05;6.45;;;13.40;99.90;;;;;;5230461;28;20021;-77
2021/12/27 07:24:30;;;;;;;10.15;5.15;;;13.40;99.90;;;;;;5230326;28;20028;-77
2021/12/27 07:27:00;;;;;;;10.38;5.45;;;13.50;99.90;;;;;;5229121;28;20477;-77
2021/12/27 08:30:47;;;;;;;9.98;5.25;;;13.70;99.90;;;;;;5308284;27;20444;-74
2021/12/27 08:33:17;;;;;;;14.25;6.25;;;13.90;99.90;;;;;;5308028;28;20027;-73
2021/12/27 08:35:48;;;;;;;15.95;6.28;;;14.00;99.90;;;;;;5308153;28;20034;-73
2021/12/27 08:38:19;;;;;;;8.80;5.68;;;14.10;99.90;;;;;;5308124;28;20019;-73
2021/12/27 08:40:50;;;;;;;10.73;5.35;;;14.10;99.90;;;;;;5307933;28;20453;-73
2021/12/27 08:43:21;;;;;;;12.65;6.10;;;14.20;99.90;;;;;;5308229;28;20061;-74
2021/12/27 08:45:53;;;;;;;9.60;5.38;;;14.30;99.90;;;;;;5289609;28;20541;-74
2021/12/27 08:48:24;;;;;;;10.05;5.90;;;14.30;99.90;;;;;;5307953;28;20031;-74
2021/12/27 08:50:55;;;;;;;13.07;5.90;;;14.20;99.90;;;;;;5289153;28;20076;-74
2021/12/27 08:53:26;;;;;;;11.65;5.53;;;14.30;99.90;;;;;;5289538;28;20366;-74
2021/12/27 08:55:57;;;;;;;9.40;4.97;;;14.30;99.90;;;;;;5307744;28;20069;-73
2021/12/27 08:58:27;;;;;;;9.63;5.95;;;14.30;99.90;;;;;;5307630;28;20489;-73
2021/12/27 09:00:58;;;;;;;13.55;5.47;;;14.40;99.90;;;;;;5307563;28;20055;-73
2021/12/27 09:03:29;;;;;;;12.43;5.60;;;14.40;99.90;;;;;;5307693;27;20106;-74
2021/12/27 09:06:00;;;;;;;10.35;5.20;;;14.50;99.90;;;;;;5307617;28;20510;-74
2021/12/27 09:08:31;;;;;;;13.50;5.35;;;14.50;99.90;;;;;;5306308;28;20027;-73
2021/12/27 09:11:02;;;;;;;10.25;4.82;;;14.50;99.90;;;;;;5307515;27;20024;-73
2021/12/27 09:13:36;;;;;;;11.98;5.25;;;14.60;99.90;;;;;;5307571;27;20026;-74
2021/12/27 09:16:10;;;;;;;9.88;5.20;;;14.60;99.90;;;;;;5306160;28;20440;-74
2021/12/27 09:18:41;;;;;;;10.70;5.45;;;14.60;99.90;;;;;;5306051;28;20432;-74
2021/12/27 09:21:12;;;;;;;8.48;4.97;;;14.60;99.90;;;;;;5307104;28;20024;-74
2021/12/27 09:23:42;;;;;;;13.20;4.97;;;14.60;99.90;;;;;;5307270;28;20032;-73
2021/12/27 09:26:13;;;;;;;9.52;5.55;;;14.60;99.90;;;;;;5306978;27;20359;-73
2021/12/27 09:28:44;;;;;;;13.02;6.47;;;14.60;99.90;;;;;;5305478;28;20393;-74
2021/12/27 09:31:15;;;;;;;12.60;5.43;;;14.70;99.90;;;;;;5295547;28;20035;-73
2021/12/27 09:33:46;;;;;;;12.57;6.20;;;14.90;99.90;;;;;;5293009;28;20023;-73
2021/12/27 09:36:17;;;;;;;11.52;5.20;;;15.10;99.90;;;;;;5291555;28;20347;-73
2021/12/27 09:38:48;;;;;;;7.50;4.50;;;15.50;99.90;;;;;;5292751;28;20036;-73
2021/12/27 09:41:19;;;;;;;12.20;5.10;;;15.30;99.90;;;;;;5292620;28;20062;-73
2021/12/27 09:43:51;;;;;;;9.48;4.60;;;15.40;99.90;;;;;;5291439;28;20027;-73
2021/12/27 09:46:23;;;;;;;7.75;4.35;;;15.20;99.90;;;;;;5292664;28;20054;-72
2021/12/27 09:48:57;;;;;;;10.80;4.72;;;15.50;99.90;;;;;;5292618;27;20107;-72
2021/12/27 09:51:30;;;;;;;6.68;4.65;;;15.80;99.90;;;;;;5291006;28;20466;-73
2021/12/27 09:54:02;;;;;;;9.88;3.70;;;15.70;99.90;;;;;;5292539;28;20020;-73
2021/12/27 09:56:33;;;;;;;10.05;4.40;;;15.80;99.90;;;;;;5291239;28;20020;-73
2021/12/27 09:59:04;;;;;;;10.20;4.00;;;16.30;99.90;;;;;;5290842;28;20051;-73
2021/12/27 10:01:35;;;;;;;12.63;3.92;;;16.40;99.90;;;;;;5291991;28;20049;-74
2021/12/27 10:04:06;;;;;;;5.95;3.88;;;16.40;99.90;;;;;;5292359;28;20027;-73
2021/12/27 10:06:37;;;;;;;8.25;3.95;;;16.50;99.90;;;;;;5292275;28;20027;-73
2021/12/27 10:09:08;;;;;;;7.28;3.80;;;16.60;99.90;;;;;;5292142;28;20036;-73
2021/12/27 10:11:42;;;;;;;10.73;3.97;;;16.70;99.90;;;;;;5292081;28;20024;-73
2021/12/27 10:14:16;;;;;;;10.40;3.75;;;16.70;99.90;;;;;;5292164;28;20382;-73
2021/12/27 10:17:10;;;;;;;9.07;3.83;;;16.90;99.90;;;;;;5292088;28;20023;-73
2021/12/27 10:19:41;;;;;;;5.90;3.55;;;16.90;99.90;;;;;;5291905;28;20031;-72
2021/12/27 10:22:12;;;;;;;8.63;3.67;;;17.10;99.90;;;;;;5291949;28;20428;-73
2021/12/27 10:24:45;;;;;;;7.57;3.75;;;16.90;99.90;;;;;;5290602;28;20032;-74
2021/12/27 10:27:16;;;;;;;9.00;3.60;;;16.90;99.90;;;;;;5291884;28;20106;-73
2021/12/27 10:29:47;;;;;;;5.82;3.45;;;17.10;99.90;;;;;;5291370;28;20044;-74
2021/12/27 10:32:18;;;;;;;11.38;3.90;;;16.90;99.90;;;;;;5291805;28;20039;-73
2021/12/27 10:34:51;;;;;;;7.00;3.55;;;17.10;99.90;;;;;;5291805;28;20019;-74
2021/12/27 10:37:26;;;;;;;5.90;3.50;;;17.60;99.90;;;;;;5291671;27;20028;-73
2021/12/27 10:40:04;;;;;;;7.25;3.90;;;17.60;99.90;;;;;;5291439;28;20046;-73
2021/12/27 10:42:48;;;;;;;7.30;4.22;;;17.60;99.90;;;;;;5290604;28;20062;-73
2021/12/27 10:45:21;;;;;;;7.28;3.70;;;16.90;99.90;;;;;;5290198;28;20074;-74
2021/12/27 10:48:03;;;;;;;9.50;4.32;;;16.60;99.90;;;;;;5290108;28;20093;-73
2021/12/27 10:50:37;;;;;;;7.63;4.25;;;17.10;99.90;;;;;;5290080;28;20031;-72
2021/12/27 10:53:14;;;;;;;8.32;4.15;;;17.10;99.90;;;;;;5291378;28;20455;-73
2021/12/27 10:55:47;;;;;;;11.30;4.15;;;16.90;99.90;;;;;;5291315;28;20076;-73
2021/12/27 10:58:24;;;;;;;7.70;3.75;;;17.30;99.90;;;;;;5290942;28;20035;-73
2021/12/27 11:00:59;;;;;;;9.60;4.15;;;17.50;99.90;;;;;;5291166;28;20063;-73
2021/12/27 11:03:36;;;;;;;9.23;4.70;;;17.20;99.90;;;;;;5291290;28;20086;-74
2021/12/27 11:06:10;;;;;;;8.85;4.20;;;16.90;99.90;;;;;;5291032;28;20016;-73
2021/12/27 11:08:47;;;;;;;8.30;4.22;;;17.20;99.90;;;;;;5291002;28;20122;-73
2021/12/27 11:11:20;;;;;;;8.43;4.32;;;17.20;99.90;;;;;;5290983;28;20028;-73
2021/12/27 11:13:57;;;;;;;14.45;4.50;;;17.30;99.90;;;;;;5291067;28;20043;-74
2021/12/27 11:16:28;;;;;;;6.50;3.85;;;16.70;99.90;;;;;;5290578;28;20103;-74
2021/12/27 11:18:59;;;;;;;7.63;3.80;;;16.90;99.90;;;;;;5289404;28;20119;-73
2021/12/27 11:21:45;;;;;;;10.18;4.15;;;16.70;99.90;;;;;;5289258;28;20530;-74
2021/12/27 11:24:18;;;;;;;9.10;3.90;;;16.50;99.90;;;;;;5290785;28;20047;-76
2021/12/27 11:26:55;;;;;;;8.85;3.53;;;16.70;99.90;;;;;;5290761;28;20043;-72
2021/12/27 11:29:25;;;;;;;9.57;3.72;;;16.40;99.90;;;;;;5290338;28;20046;-73
2021/12/27 11:32:16;;;;;;;5.07;3.08;;;16.30;99.90;;;;;;5289314;28;20015;-73
2021/12/27 11:34:55;;;;;;;10.20;4.03;;;16.20;99.90;;;;;;5289282;28;20371;-73
2021/12/27 11:37:41;;;;;;;7.93;4.18;;;16.10;99.90;;;;;;5289147;28;20039;-73
2021/12/27 11:40:15;;;;;;;10.95;4.05;;;16.20;99.90;;;;;;5288959;28;20031;-73
2021/12/27 11:42:57;;;;;;;6.43;4.15;;;16.60;99.90;;;;;;5290623;28;20019;-73
2021/12/27 11:45:43;;;;;;;12.23;4.65;;;16.90;99.90;;;;;;5290353;28;20061;-72
2021/12/27 11:48:17;;;;;;;8.50;4.50;;;17.10;99.90;;;;;;5290411;28;20043;-75
2021/12/27 11:50:56;;;;;;;9.18;3.88;;;17.40;99.90;;;;;;5290103;28;20088;-73
2021/12/27 11:53:44;;;;;;;9.48;4.28;;;17.40;99.90;;;;;;5289984;28;20023;-73
2021/12/27 11:56:36;;;;;;;8.10;3.45;;;18.10;99.90;;;;;;5290224;28;20032;-74
2021/12/27 11:59:23;;;;;;;11.90;3.58;;;17.90;99.90;;;;;;5289642;28;20070;-73
2021/12/27 12:02:21;;;;;;;12.02;3.90;;;18.00;99.90;;;;;;5289924;28;20057;-73
2021/12/27 12:04:56;;;;;;;9.68;3.20;;;18.30;99.90;;;;;;5290030;28;20019;-73
2021/12/27 12:07:35;;;;;;;8.55;3.33;;;18.50;99.90;;;;;;5290119;28;20084;-73
2021/12/27 12:10:13;;;;;;;10.73;3.92;;;18.30;99.90;;;;;;5289955;28;20470;-73
2021/12/27 12:13:22;;;;;;;10.82;2.97;;;18.20;99.90;;;;;;5289986;28;20034;-73
2021/12/27 12:16:19;;;;;;;6.72;3.03;;;17.50;99.90;;;;;;5290037;28;20038;-73
2021/12/27 12:18:53;;;;;;;8.07;2.97;;;17.30;99.90;;;;;;5286462;28;20494;-73
2021/12/27 12:21:33;;;;;;;9.82;3.22;;;17.40;99.90;;;;;;5288409;28;20032;-73
2021/12/27 12:24:12;;;;;;;7.05;3.28;;;17.50;99.90;;;;;;5288700;28;20114;-73
2021/12/27 12:26:56;;;;;;;8.07;3.17;;;17.50;99.90;;;;;;5289870;28;20378;-74
2021/12/27 12:29:39;;;;;;;10.77;3.63;;;17.50;99.90;;;;;;5289421;28;20122;-74
2021/12/27 12:32:13;;;;;;;7.60;2.92;;;17.80;99.90;;;;;;5289808;28;20028;-73
2021/12/27 12:34:44;;;;;;;6.45;3.47;;;17.70;99.90;;;;;;5289828;28;20020;-73
2021/12/27 12:37:16;;;;;;;6.10;3.40;;;17.90;99.90;;;;;;5289735;28;20034;-73
2021/12/27 12:39:51;;;;;;;8.93;3.60;;;17.80;99.90;;;;;;5289245;28;20496;-74
2021/12/27 12:42:25;;;;;;;10.65;4.10;;;17.90;99.90;;;;;;5288398;28;20112;-73
2021/12/27 12:44:59;;;;;;;6.70;2.50;;;18.30;99.90;;;;;;5289654;28;20102;-73
2021/12/27 12:47:38;;;;;;;6.45;2.60;;;18.20;99.90;;;;;;5289551;28;20050;-74
2021/12/27 12:50:16;;;;;;;8.43;3.05;;;18.40;99.90;;;;;;5289701;28;20026;-74
2021/12/27 12:52:52;;;;;;;8.32;2.70;;;18.40;99.90;;;;;;5289602;28;20097;-73
2021/12/27 12:55:32;;;;;;;7.90;3.00;;;18.00;99.90;;;;;;5289694;28;20490;-74
2021/12/27 12:58:03;;;;;;;6.88;2.55;;;18.10;99.90;;;;;;5289276;28;20024;-73
2021/12/27 13:00:36;;;;;;;7.78;2.80;;;18.10;99.90;;;;;;5289274;28;20137;-73
2021/12/27 13:03:11;;;;;;;6.40;2.85;;;17.90;99.90;;;;;;5289415;28;20024;-73
2021/12/27 13:05:42;;;;;;;8.35;2.90;;;17.80;99.90;;;;;;5291058;28;20031;-73
2021/12/27 13:08:14;;;;;;;13.98;3.30;;;17.90;99.90;;;;;;5293562;28;20462;-73
2021/12/27 13:10:46;;;;;;;10.55;3.20;;;17.50;99.90;;;;;;5293395;28;20024;-73
2021/12/27 13:13:18;;;;;;;10.65;3.40;;;17.20;99.90;;;;;;5293350;28;20015;-73
2021/12/27 13:15:59;;;;;;;6.70;3.15;;;17.50;99.90;;;;;;5293370;28;20375;-73
2021/12/27 13:18:31;;;;;;;;;;;17.40;99.90;;;;;;5293701;28;20135;-73
2021/12/27 13:21:09;;;;;;;5.97;2.88;;;17.40;99.90;;;;;;5292993;28;19907;-73
2021/12/27 13:23:41;;;;;;;5.47;2.60;;;17.30;99.90;;;;;;5293347;28;20434;-73
2021/12/27 13:26:15;;;;;;;10.73;3.03;;;17.20;99.90;;;;;;5293313;28;20023;-73
2021/12/27 13:28:50;;;;;;;7.90;3.03;;;17.10;99.90;;;;;;5291385;28;20508;-73
2021/12/27 13:31:23;;;;;;;12.55;3.30;;;17.10;99.90;;;;;;5293002;28;20044;-73
2021/12/27 13:34:05;;;;;;;11.75;3.70;;;17.00;99.90;;;;;;5292860;28;20080;-73
2021/12/27 13:36:45;;;;;;;10.27;3.90;;;16.80;99.90;;;;;;5292848;28;20111;-73
2021/12/27 13:39:20;;;;;;;7.45;3.90;;;16.60;99.90;;;;;;5292849;28;20054;-73
2021/12/27 13:41:54;;;;;;;8.60;3.38;;;16.70;99.90;;;;;;5292721;28;20084;-74
2021/12/27 13:44:30;;;;;;;8.48;3.50;;;16.60;99.90;;;;;;5292766;27;20478;-74
2021/12/27 13:47:07;;;;;;;8.75;3.78;;;16.40;99.90;;;;;;5292767;28;20052;-73
2021/12/27 13:49:40;;;;;;;8.05;3.35;;;16.40;99.90;;;;;;5292576;28;20059;-73
2021/12/27 13:52:17;;;;;;;11.65;4.80;;;16.30;99.90;;;;;;5292562;28;20061;-73
2021/12/27 13:54:52;;;;;;;9.80;4.15;;;16.10;99.90;;;;;;5292500;28;20024;-73
2021/12/27 13:57:40;;;;;;;11.27;3.53;;;16.00;99.90;;;;;;5292490;28;20036;-73
2021/12/27 14:00:12;;;;;;;8.35;4.07;;;16.00;99.90;;;;;;5292072;28;20363;-73
2021/12/27 14:02:44;;;;;;;15.52;4.85;;;15.70;99.90;;;;;;5292348;28;20024;-74
2021/12/27 14:05:15;;;;;;;12.20;4.63;;;15.70;99.90;;;;;;5292551;28;20058;-73
2021/12/27 14:07:46;;;;;;;17.58;5.53;;;15.60;99.90;;;;;;5292247;28;20051;-73
2021/12/27 14:10:19;;;;;;;10.88;5.18;;;15.50;99.90;;;;;;5292121;28;20077;-73
2021/12/27 14:13:01;;;;;;;10.02;3.92;;;15.30;99.90;;;;;;5292183;28;20066;-73
2021/12/27 14:15:33;;;;;;;9.18;4.53;;;15.50;99.90;;;;;;5292027;28;20024;-74
2021/12/27 14:18:12;;;;;;;11.50;4.30;;;15.40;99.90;;;;;;5291978;28;20533;-73
2021/12/27 14:21:02;;;;;;;18.85;4.70;;;15.30;99.90;;;;;;5291992;28;20466;-73